sensor_id;sensor_type;location;lat;lon;timestamp;pressure;altitude;pressure_sealevel;temperature
20733;BMP180;10527;52.124;5.196;2023-09-19T00:00:47;100560.00;;;26.80
20733;BMP180;10527;52.124;5.196;2023-09-19T00:03:20;100558.00;;;26.80
20733;BMP180;10527;52.124;5.196;2023-09-19T00:05:47;100563.00;;;26.80
20733;BMP180;10527;52.124;5.196;2023-09-19T00:08:14;100562.00;;;26.80
20733;BMP180;10527;52.124;5.196;2023-09-19T00:10:42;100572.00;;;26.80
20733;BMP180;10527;52.124;5.196;2023-09-19T00:13:10;100580.00;;;26.80
20733;BMP180;10527;52.124;5.196;2023-09-19T00:15:45;100577.00;;;26.80
20733;BMP180;10527;52.124;5.196;2023-09-19T00:18:20;100571.00;;;26.70
20733;BMP180;10527;52.124;5.196;2023-09-19T00:20:50;100579.00;;;26.70
20733;BMP180;10527;52.124;5.196;2023-09-19T00:23:19;100582.00;;;26.70
20733;BMP180;10527;52.124;5.196;2023-09-19T00:25:47;100577.00;;;26.70
20733;BMP180;10527;52.124;5.196;2023-09-19T00:28:14;100578.00;;;26.70
20733;BMP180;10527;52.124;5.196;2023-09-19T00:30:43;100579.00;;;26.60
20733;BMP180;10527;52.124;5.196;2023-09-19T00:33:12;100583.00;;;26.60
20733;BMP180;10527;52.124;5.196;2023-09-19T00:35:51;100578.00;;;26.60
20733;BMP180;10527;52.124;5.196;2023-09-19T00:38:23;100575.00;;;26.60
20733;BMP180;10527;52.124;5.196;2023-09-19T00:40:55;100574.00;;;26.60
20733;BMP180;10527;52.124;5.196;2023-09-19T00:43:27;100579.00;;;26.60
20733;BMP180;10527;52.124;5.196;2023-09-19T00:45:57;100583.00;;;26.60
20733;BMP180;10527;52.124;5.196;2023-09-19T00:48:25;100598.00;;;26.60
20733;BMP180;10527;52.124;5.196;2023-09-19T00:51:04;100592.00;;;26.60
20733;BMP180;10527;52.124;5.196;2023-09-19T00:53:32;100600.00;;;26.60
20733;BMP180;10527;52.124;5.196;2023-09-19T00:56:02;100592.00;;;26.60
20733;BMP180;10527;52.124;5.196;2023-09-19T00:58:31;100610.00;;;26.50
20733;BMP180;10527;52.124;5.196;2023-09-19T01:01:01;100601.00;;;26.50
20733;BMP180;10527;52.124;5.196;2023-09-19T01:03:30;100601.00;;;26.50
20733;BMP180;10527;52.124;5.196;2023-09-19T01:05:57;100600.00;;;26.50
20733;BMP180;10527;52.124;5.196;2023-09-19T01:08:24;100606.00;;;26.50
20733;BMP180;10527;52.124;5.196;2023-09-19T01:11:28;100605.00;;;26.50
20733;BMP180;10527;52.124;5.196;2023-09-19T01:14:30;100603.00;;;26.50
20733;BMP180;10527;52.124;5.196;2023-09-19T01:17:14;100601.00;;;26.50
20733;BMP180;10527;52.124;5.196;2023-09-19T01:23:19;100606.00;;;26.50
20733;BMP180;10527;52.124;5.196;2023-09-19T01:29:29;100602.00;;;26.40
20733;BMP180;10527;52.124;5.196;2023-09-19T01:32:04;100599.00;;;26.40
20733;BMP180;10527;52.124;5.196;2023-09-19T01:37:18;100610.00;;;26.40
20733;BMP180;10527;52.124;5.196;2023-09-19T01:40:03;100609.00;;;26.40
20733;BMP180;10527;52.124;5.196;2023-09-19T01:51:09;100628.00;;;26.30
20733;BMP180;10527;52.124;5.196;2023-09-19T01:54:01;100625.00;;;26.30
20733;BMP180;10527;52.124;5.196;2023-09-19T01:56:50;100623.00;;;26.30
20733;BMP180;10527;52.124;5.196;2023-09-19T01:59:25;100621.00;;;26.20
20733;BMP180;10527;52.124;5.196;2023-09-19T02:01:56;100623.00;;;26.20
20733;BMP180;10527;52.124;5.196;2023-09-19T02:04:24;100619.00;;;26.20
20733;BMP180;10527;52.124;5.196;2023-09-19T02:06:51;100619.00;;;26.20
20733;BMP180;10527;52.124;5.196;2023-09-19T02:09:18;100614.00;;;26.20
20733;BMP180;10527;52.124;5.196;2023-09-19T02:11:45;100610.00;;;26.10
20733;BMP180;10527;52.124;5.196;2023-09-19T02:14:13;100611.00;;;26.10
20733;BMP180;10527;52.124;5.196;2023-09-19T02:16:40;100616.00;;;26.10
20733;BMP180;10527;52.124;5.196;2023-09-19T02:19:08;100615.00;;;26.10
20733;BMP180;10527;52.124;5.196;2023-09-19T02:21:35;100614.00;;;26.00
20733;BMP180;10527;52.124;5.196;2023-09-19T02:24:03;100623.00;;;26.00
20733;BMP180;10527;52.124;5.196;2023-09-19T02:26:30;100632.00;;;26.00
20733;BMP180;10527;52.124;5.196;2023-09-19T02:28:57;100626.00;;;26.00
20733;BMP180;10527;52.124;5.196;2023-09-19T02:31:24;100612.00;;;26.00
20733;BMP180;10527;52.124;5.196;2023-09-19T02:33:51;100623.00;;;26.00
20733;BMP180;10527;52.124;5.196;2023-09-19T02:36:18;100618.00;;;25.90
20733;BMP180;10527;52.124;5.196;2023-09-19T02:38:45;100621.00;;;26.00
20733;BMP180;10527;52.124;5.196;2023-09-19T02:41:12;100633.00;;;26.00
20733;BMP180;10527;52.124;5.196;2023-09-19T02:43:39;100625.00;;;26.00
20733;BMP180;10527;52.124;5.196;2023-09-19T02:46:06;100623.00;;;25.90
20733;BMP180;10527;52.124;5.196;2023-09-19T02:48:33;100624.00;;;25.90
20733;BMP180;10527;52.124;5.196;2023-09-19T02:51:02;100624.00;;;25.90
20733;BMP180;10527;52.124;5.196;2023-09-19T02:53:32;100631.00;;;25.90
20733;BMP180;10527;52.124;5.196;2023-09-19T02:55:59;100634.00;;;25.90
20733;BMP180;10527;52.124;5.196;2023-09-19T02:58:26;100631.00;;;25.80
20733;BMP180;10527;52.124;5.196;2023-09-19T03:00:55;100631.00;;;25.80
20733;BMP180;10527;52.124;5.196;2023-09-19T03:03:22;100634.00;;;25.80
20733;BMP180;10527;52.124;5.196;2023-09-19T03:05:50;100623.00;;;25.80
20733;BMP180;10527;52.124;5.196;2023-09-19T03:08:20;100625.00;;;25.80
20733;BMP180;10527;52.124;5.196;2023-09-19T03:10:48;100627.00;;;25.80
20733;BMP180;10527;52.124;5.196;2023-09-19T03:13:16;100621.00;;;25.80
20733;BMP180;10527;52.124;5.196;2023-09-19T03:15:43;100624.00;;;25.70
20733;BMP180;10527;52.124;5.196;2023-09-19T03:18:21;100620.00;;;25.70
20733;BMP180;10527;52.124;5.196;2023-09-19T03:20:56;100623.00;;;25.70
20733;BMP180;10527;52.124;5.196;2023-09-19T03:23:23;100630.00;;;25.70
20733;BMP180;10527;52.124;5.196;2023-09-19T03:25:50;100632.00;;;25.60
20733;BMP180;10527;52.124;5.196;2023-09-19T03:28:17;100621.00;;;25.60
20733;BMP180;10527;52.124;5.196;2023-09-19T03:30:44;100629.00;;;25.60
20733;BMP180;10527;52.124;5.196;2023-09-19T03:33:12;100620.00;;;25.60
20733;BMP180;10527;52.124;5.196;2023-09-19T03:35:39;100626.00;;;25.60
20733;BMP180;10527;52.124;5.196;2023-09-19T03:38:06;100623.00;;;25.50
20733;BMP180;10527;52.124;5.196;2023-09-19T03:40:33;100621.00;;;25.50
20733;BMP180;10527;52.124;5.196;2023-09-19T03:43:06;100612.00;;;25.50
20733;BMP180;10527;52.124;5.196;2023-09-19T03:45:33;100617.00;;;25.50
20733;BMP180;10527;52.124;5.196;2023-09-19T03:48:09;100624.00;;;25.50
20733;BMP180;10527;52.124;5.196;2023-09-19T03:50:36;100616.00;;;25.50
20733;BMP180;10527;52.124;5.196;2023-09-19T03:53:10;100618.00;;;25.50
20733;BMP180;10527;52.124;5.196;2023-09-19T03:55:37;100624.00;;;25.40
20733;BMP180;10527;52.124;5.196;2023-09-19T03:58:06;100629.00;;;25.40
20733;BMP180;10527;52.124;5.196;2023-09-19T04:00:32;100634.00;;;25.40
20733;BMP180;10527;52.124;5.196;2023-09-19T04:03:07;100634.00;;;25.40
20733;BMP180;10527;52.124;5.196;2023-09-19T04:05:35;100643.00;;;25.30
20733;BMP180;10527;52.124;5.196;2023-09-19T04:08:02;100643.00;;;25.30
20733;BMP180;10527;52.124;5.196;2023-09-19T04:10:29;100656.00;;;25.30
20733;BMP180;10527;52.124;5.196;2023-09-19T04:12:56;100647.00;;;25.30
20733;BMP180;10527;52.124;5.196;2023-09-19T04:15:24;100654.00;;;25.30
20733;BMP180;10527;52.124;5.196;2023-09-19T04:17:52;100658.00;;;25.20
20733;BMP180;10527;52.124;5.196;2023-09-19T04:20:19;100659.00;;;25.20
20733;BMP180;10527;52.124;5.196;2023-09-19T04:22:46;100669.00;;;25.30
20733;BMP180;10527;52.124;5.196;2023-09-19T04:25:14;100660.00;;;25.20
20733;BMP180;10527;52.124;5.196;2023-09-19T04:27:41;100677.00;;;25.20
20733;BMP180;10527;52.124;5.196;2023-09-19T04:30:08;100671.00;;;25.20
20733;BMP180;10527;52.124;5.196;2023-09-19T04:32:38;100671.00;;;25.20
20733;BMP180;10527;52.124;5.196;2023-09-19T04:35:10;100675.00;;;25.20
20733;BMP180;10527;52.124;5.196;2023-09-19T04:37:41;100687.00;;;25.20
20733;BMP180;10527;52.124;5.196;2023-09-19T04:40:11;100673.00;;;25.10
20733;BMP180;10527;52.124;5.196;2023-09-19T04:42:57;100673.00;;;25.10
20733;BMP180;10527;52.124;5.196;2023-09-19T04:45:26;100686.00;;;25.10
20733;BMP180;10527;52.124;5.196;2023-09-19T04:47:54;100683.00;;;25.10
20733;BMP180;10527;52.124;5.196;2023-09-19T04:50:23;100684.00;;;25.10
20733;BMP180;10527;52.124;5.196;2023-09-19T04:52:54;100680.00;;;25.10
20733;BMP180;10527;52.124;5.196;2023-09-19T04:55:21;100680.00;;;25.10
20733;BMP180;10527;52.124;5.196;2023-09-19T04:57:52;100672.00;;;25.10
20733;BMP180;10527;52.124;5.196;2023-09-19T05:00:21;100675.00;;;25.10
20733;BMP180;10527;52.124;5.196;2023-09-19T05:02:52;100685.00;;;25.10
20733;BMP180;10527;52.124;5.196;2023-09-19T05:05:19;100686.00;;;25.10
20733;BMP180;10527;52.124;5.196;2023-09-19T05:07:46;100681.00;;;25.10
20733;BMP180;10527;52.124;5.196;2023-09-19T05:10:15;100676.00;;;25.10
20733;BMP180;10527;52.124;5.196;2023-09-19T05:12:47;100685.00;;;25.10
20733;BMP180;10527;52.124;5.196;2023-09-19T05:15:21;100693.00;;;25.10
20733;BMP180;10527;52.124;5.196;2023-09-19T05:17:49;100691.00;;;25.10
20733;BMP180;10527;52.124;5.196;2023-09-19T05:20:23;100691.00;;;25.10
20733;BMP180;10527;52.124;5.196;2023-09-19T05:23:05;100691.00;;;25.10
20733;BMP180;10527;52.124;5.196;2023-09-19T05:25:40;100688.00;;;25.10
20733;BMP180;10527;52.124;5.196;2023-09-19T05:28:10;100689.00;;;25.10
20733;BMP180;10527;52.124;5.196;2023-09-19T05:30:42;100684.00;;;25.10
20733;BMP180;10527;52.124;5.196;2023-09-19T05:33:13;100684.00;;;25.00
20733;BMP180;10527;52.124;5.196;2023-09-19T05:35:43;100684.00;;;25.00
20733;BMP180;10527;52.124;5.196;2023-09-19T05:38:10;100680.00;;;25.00
20733;BMP180;10527;52.124;5.196;2023-09-19T05:40:40;100672.00;;;25.00
20733;BMP180;10527;52.124;5.196;2023-09-19T05:43:15;100677.00;;;25.00
20733;BMP180;10527;52.124;5.196;2023-09-19T05:45:43;100682.00;;;25.00
20733;BMP180;10527;52.124;5.196;2023-09-19T05:48:12;100685.00;;;25.00
20733;BMP180;10527;52.124;5.196;2023-09-19T05:50:44;100697.00;;;25.00
20733;BMP180;10527;52.124;5.196;2023-09-19T05:53:13;100698.00;;;25.00
20733;BMP180;10527;52.124;5.196;2023-09-19T05:55:41;100696.00;;;25.10
20733;BMP180;10527;52.124;5.196;2023-09-19T05:58:09;100703.00;;;25.10
20733;BMP180;10527;52.124;5.196;2023-09-19T06:00:39;100708.00;;;25.10
20733;BMP180;10527;52.124;5.196;2023-09-19T06:03:08;100705.00;;;25.10
20733;BMP180;10527;52.124;5.196;2023-09-19T06:05:35;100711.00;;;25.10
20733;BMP180;10527;52.124;5.196;2023-09-19T06:08:02;100714.00;;;25.20
20733;BMP180;10527;52.124;5.196;2023-09-19T06:10:35;100712.00;;;25.20
20733;BMP180;10527;52.124;5.196;2023-09-19T06:13:04;100713.00;;;25.20
20733;BMP180;10527;52.124;5.196;2023-09-19T06:15:32;100717.00;;;25.20
20733;BMP180;10527;52.124;5.196;2023-09-19T06:18:00;100708.00;;;25.20
20733;BMP180;10527;52.124;5.196;2023-09-19T06:20:29;100720.00;;;25.20
20733;BMP180;10527;52.124;5.196;2023-09-19T06:22:57;100720.00;;;25.30
20733;BMP180;10527;52.124;5.196;2023-09-19T06:25:24;100716.00;;;25.30
20733;BMP180;10527;52.124;5.196;2023-09-19T06:27:52;100719.00;;;25.30
20733;BMP180;10527;52.124;5.196;2023-09-19T06:30:22;100721.00;;;25.30
20733;BMP180;10527;52.124;5.196;2023-09-19T06:32:59;100708.00;;;25.30
20733;BMP180;10527;52.124;5.196;2023-09-19T06:35:31;100711.00;;;25.40
20733;BMP180;10527;52.124;5.196;2023-09-19T06:38:02;100709.00;;;25.40
20733;BMP180;10527;52.124;5.196;2023-09-19T06:40:31;100717.00;;;25.40
20733;BMP180;10527;52.124;5.196;2023-09-19T06:42:58;100710.00;;;25.40
20733;BMP180;10527;52.124;5.196;2023-09-19T06:45:25;100719.00;;;25.40
20733;BMP180;10527;52.124;5.196;2023-09-19T06:47:54;100720.00;;;25.40
20733;BMP180;10527;52.124;5.196;2023-09-19T06:50:25;100729.00;;;25.40
20733;BMP180;10527;52.124;5.196;2023-09-19T06:52:54;100712.00;;;25.50
20733;BMP180;10527;52.124;5.196;2023-09-19T06:55:23;100708.00;;;25.50
20733;BMP180;10527;52.124;5.196;2023-09-19T06:57:52;100726.00;;;25.50
20733;BMP180;10527;52.124;5.196;2023-09-19T07:00:21;100721.00;;;25.50
20733;BMP180;10527;52.124;5.196;2023-09-19T07:05:23;100718.00;;;25.50
20733;BMP180;10527;52.124;5.196;2023-09-19T07:07:50;100718.00;;;25.60
20733;BMP180;10527;52.124;5.196;2023-09-19T07:10:17;100716.00;;;25.60
20733;BMP180;10527;52.124;5.196;2023-09-19T07:12:45;100720.00;;;25.60
20733;BMP180;10527;52.124;5.196;2023-09-19T07:15:12;100722.00;;;25.60
20733;BMP180;10527;52.124;5.196;2023-09-19T07:17:40;100735.00;;;25.70
20733;BMP180;10527;52.124;5.196;2023-09-19T07:20:07;100732.00;;;25.70
20733;BMP180;10527;52.124;5.196;2023-09-19T07:22:35;100735.00;;;25.70
20733;BMP180;10527;52.124;5.196;2023-09-19T07:25:03;100732.00;;;25.80
20733;BMP180;10527;52.124;5.196;2023-09-19T07:27:30;100737.00;;;25.80
20733;BMP180;10527;52.124;5.196;2023-09-19T07:29:57;100738.00;;;25.80
20733;BMP180;10527;52.124;5.196;2023-09-19T07:32:24;100742.00;;;25.80
20733;BMP180;10527;52.124;5.196;2023-09-19T07:34:51;100753.00;;;25.90
20733;BMP180;10527;52.124;5.196;2023-09-19T07:37:18;100740.00;;;25.90
20733;BMP180;10527;52.124;5.196;2023-09-19T07:39:45;100743.00;;;25.90
20733;BMP180;10527;52.124;5.196;2023-09-19T07:42:12;100756.00;;;25.90
20733;BMP180;10527;52.124;5.196;2023-09-19T07:44:44;100745.00;;;26.00
20733;BMP180;10527;52.124;5.196;2023-09-19T07:47:14;100741.00;;;26.00
20733;BMP180;10527;52.124;5.196;2023-09-19T07:49:42;100755.00;;;26.00
20733;BMP180;10527;52.124;5.196;2023-09-19T07:52:09;100745.00;;;26.10
20733;BMP180;10527;52.124;5.196;2023-09-19T07:54:39;100749.00;;;26.10
20733;BMP180;10527;52.124;5.196;2023-09-19T07:57:08;100749.00;;;26.20
20733;BMP180;10527;52.124;5.196;2023-09-19T07:59:35;100744.00;;;26.20
20733;BMP180;10527;52.124;5.196;2023-09-19T08:02:04;100763.00;;;26.20
20733;BMP180;10527;52.124;5.196;2023-09-19T08:04:31;100747.00;;;26.30
20733;BMP180;10527;52.124;5.196;2023-09-19T08:07:01;100757.00;;;26.30
20733;BMP180;10527;52.124;5.196;2023-09-19T08:09:30;100759.00;;;26.40
20733;BMP180;10527;52.124;5.196;2023-09-19T08:12:00;100759.00;;;26.40
20733;BMP180;10527;52.124;5.196;2023-09-19T08:14:32;100747.00;;;26.40
20733;BMP180;10527;52.124;5.196;2023-09-19T08:16:59;100756.00;;;26.40
20733;BMP180;10527;52.124;5.196;2023-09-19T08:19:27;100751.00;;;26.40
20733;BMP180;10527;52.124;5.196;2023-09-19T08:21:57;100747.00;;;26.50
20733;BMP180;10527;52.124;5.196;2023-09-19T08:24:29;100754.00;;;26.50
20733;BMP180;10527;52.124;5.196;2023-09-19T08:26:57;100745.00;;;26.60
20733;BMP180;10527;52.124;5.196;2023-09-19T08:29:25;100743.00;;;26.70
20733;BMP180;10527;52.124;5.196;2023-09-19T08:31:55;100731.00;;;26.80
20733;BMP180;10527;52.124;5.196;2023-09-19T08:34:24;100736.00;;;27.00
20733;BMP180;10527;52.124;5.196;2023-09-19T08:36:55;100745.00;;;27.10
20733;BMP180;10527;52.124;5.196;2023-09-19T08:39:25;100746.00;;;27.20
20733;BMP180;10527;52.124;5.196;2023-09-19T08:42:00;100742.00;;;27.30
20733;BMP180;10527;52.124;5.196;2023-09-19T08:44:28;100740.00;;;27.30
20733;BMP180;10527;52.124;5.196;2023-09-19T08:47:11;100745.00;;;27.40
20733;BMP180;10527;52.124;5.196;2023-09-19T08:50:04;100738.00;;;27.50
20733;BMP180;10527;52.124;5.196;2023-09-19T08:52:42;100744.00;;;27.50
20733;BMP180;10527;52.124;5.196;2023-09-19T08:55:14;100747.00;;;27.50
20733;BMP180;10527;52.124;5.196;2023-09-19T08:57:52;100747.00;;;27.60
20733;BMP180;10527;52.124;5.196;2023-09-19T09:00:28;100742.00;;;27.60
20733;BMP180;10527;52.124;5.196;2023-09-19T09:02:58;100744.00;;;27.70
20733;BMP180;10527;52.124;5.196;2023-09-19T09:05:27;100748.00;;;27.70
20733;BMP180;10527;52.124;5.196;2023-09-19T09:07:55;100741.00;;;27.80
20733;BMP180;10527;52.124;5.196;2023-09-19T09:10:23;100744.00;;;27.80
20733;BMP180;10527;52.124;5.196;2023-09-19T09:12:54;100747.00;;;28.00
20733;BMP180;10527;52.124;5.196;2023-09-19T09:15:24;100757.00;;;28.10
20733;BMP180;10527;52.124;5.196;2023-09-19T09:17:51;100732.00;;;28.20
20733;BMP180;10527;52.124;5.196;2023-09-19T09:20:22;100729.00;;;28.20
20733;BMP180;10527;52.124;5.196;2023-09-19T09:22:56;100733.00;;;28.30
20733;BMP180;10527;52.124;5.196;2023-09-19T09:25:54;100739.00;;;28.30
20733;BMP180;10527;52.124;5.196;2023-09-19T09:28:30;100719.00;;;28.30
20733;BMP180;10527;52.124;5.196;2023-09-19T09:30:58;100720.00;;;28.30
20733;BMP180;10527;52.124;5.196;2023-09-19T09:33:25;100729.00;;;28.30
20733;BMP180;10527;52.124;5.196;2023-09-19T09:35:57;100710.00;;;28.30
20733;BMP180;10527;52.124;5.196;2023-09-19T09:38:30;100711.00;;;28.30
20733;BMP180;10527;52.124;5.196;2023-09-19T09:41:10;100709.00;;;28.30
20733;BMP180;10527;52.124;5.196;2023-09-19T09:43:42;100702.00;;;28.40
20733;BMP180;10527;52.124;5.196;2023-09-19T09:46:20;100702.00;;;28.40
20733;BMP180;10527;52.124;5.196;2023-09-19T09:49:01;100719.00;;;28.50
20733;BMP180;10527;52.124;5.196;2023-09-19T09:52:05;100729.00;;;28.50
20733;BMP180;10527;52.124;5.196;2023-09-19T09:54:58;100719.00;;;28.50
20733;BMP180;10527;52.124;5.196;2023-09-19T09:57:25;100718.00;;;28.50
20733;BMP180;10527;52.124;5.196;2023-09-19T09:59:55;100732.00;;;28.50
20733;BMP180;10527;52.124;5.196;2023-09-19T10:02:29;100725.00;;;28.50
20733;BMP180;10527;52.124;5.196;2023-09-19T10:07:52;100729.00;;;28.50
20733;BMP180;10527;52.124;5.196;2023-09-19T10:10:37;100742.00;;;28.50
20733;BMP180;10527;52.124;5.196;2023-09-19T10:13:14;100730.00;;;28.50
20733;BMP180;10527;52.124;5.196;2023-09-19T10:15:50;100724.00;;;28.40
20733;BMP180;10527;52.124;5.196;2023-09-19T10:18:24;100718.00;;;28.50
20733;BMP180;10527;52.124;5.196;2023-09-19T10:20:52;100721.00;;;28.50
20733;BMP180;10527;52.124;5.196;2023-09-19T10:23:21;100709.00;;;28.60
20733;BMP180;10527;52.124;5.196;2023-09-19T10:25:51;100700.00;;;28.70
20733;BMP180;10527;52.124;5.196;2023-09-19T10:28:21;100705.00;;;28.70
20733;BMP180;10527;52.124;5.196;2023-09-19T10:30:52;100686.00;;;28.80
20733;BMP180;10527;52.124;5.196;2023-09-19T10:33:24;100687.00;;;28.80
20733;BMP180;10527;52.124;5.196;2023-09-19T10:35:54;100684.00;;;28.90
20733;BMP180;10527;52.124;5.196;2023-09-19T10:38:25;100676.00;;;29.00
20733;BMP180;10527;52.124;5.196;2023-09-19T10:40:56;100673.00;;;29.10
20733;BMP180;10527;52.124;5.196;2023-09-19T10:43:33;100691.00;;;29.10
20733;BMP180;10527;52.124;5.196;2023-09-19T10:46:07;100685.00;;;29.20
20733;BMP180;10527;52.124;5.196;2023-09-19T10:48:41;100682.00;;;29.30
20733;BMP180;10527;52.124;5.196;2023-09-19T10:51:16;100673.00;;;29.30
20733;BMP180;10527;52.124;5.196;2023-09-19T10:54:17;100677.00;;;29.30
20733;BMP180;10527;52.124;5.196;2023-09-19T10:56:50;100672.00;;;29.30
20733;BMP180;10527;52.124;5.196;2023-09-19T10:59:20;100676.00;;;29.40
20733;BMP180;10527;52.124;5.196;2023-09-19T11:01:53;100680.00;;;29.40
20733;BMP180;10527;52.124;5.196;2023-09-19T11:04:32;100667.00;;;29.50
20733;BMP180;10527;52.124;5.196;2023-09-19T11:07:27;100655.00;;;29.50
20733;BMP180;10527;52.124;5.196;2023-09-19T11:09:56;100681.00;;;29.50
20733;BMP180;10527;52.124;5.196;2023-09-19T11:14:59;100657.00;;;29.60
20733;BMP180;10527;52.124;5.196;2023-09-19T11:17:43;100664.00;;;29.70
20733;BMP180;10527;52.124;5.196;2023-09-19T11:30:50;100660.00;;;29.60
20733;BMP180;10527;52.124;5.196;2023-09-19T11:33:37;100653.00;;;29.60
20733;BMP180;10527;52.124;5.196;2023-09-19T11:36:14;100642.00;;;29.50
20733;BMP180;10527;52.124;5.196;2023-09-19T11:46:33;100638.00;;;29.50
20733;BMP180;10527;52.124;5.196;2023-09-19T11:49:08;100637.00;;;29.50
20733;BMP180;10527;52.124;5.196;2023-09-19T11:51:42;100634.00;;;29.50
20733;BMP180;10527;52.124;5.196;2023-09-19T11:54:12;100637.00;;;29.50
20733;BMP180;10527;52.124;5.196;2023-09-19T11:56:48;100635.00;;;29.50
20733;BMP180;10527;52.124;5.196;2023-09-19T11:59:22;100639.00;;;29.60
20733;BMP180;10527;52.124;5.196;2023-09-19T12:01:57;100652.00;;;29.60
20733;BMP180;10527;52.124;5.196;2023-09-19T12:04:41;100647.00;;;29.60
20733;BMP180;10527;52.124;5.196;2023-09-19T12:07:13;100644.00;;;29.60
20733;BMP180;10527;52.124;5.196;2023-09-19T12:10:04;100661.00;;;29.60
20733;BMP180;10527;52.124;5.196;2023-09-19T12:12:31;100647.00;;;29.60
20733;BMP180;10527;52.124;5.196;2023-09-19T12:15:00;100652.00;;;29.50
20733;BMP180;10527;52.124;5.196;2023-09-19T12:17:38;100633.00;;;29.50
20733;BMP180;10527;52.124;5.196;2023-09-19T12:20:06;100653.00;;;29.50
20733;BMP180;10527;52.124;5.196;2023-09-19T12:22:45;100633.00;;;29.50
20733;BMP180;10527;52.124;5.196;2023-09-19T12:25:15;100639.00;;;29.40
20733;BMP180;10527;52.124;5.196;2023-09-19T12:27:50;100638.00;;;29.40
20733;BMP180;10527;52.124;5.196;2023-09-19T12:30:28;100647.00;;;29.40
20733;BMP180;10527;52.124;5.196;2023-09-19T12:32:55;100647.00;;;29.40
20733;BMP180;10527;52.124;5.196;2023-09-19T12:35:33;100649.00;;;29.40
20733;BMP180;10527;52.124;5.196;2023-09-19T12:38:03;100653.00;;;29.30
20733;BMP180;10527;52.124;5.196;2023-09-19T12:40:32;100652.00;;;29.30
20733;BMP180;10527;52.124;5.196;2023-09-19T12:43:02;100651.00;;;29.30
20733;BMP180;10527;52.124;5.196;2023-09-19T12:45:32;100650.00;;;29.30
20733;BMP180;10527;52.124;5.196;2023-09-19T12:48:25;100648.00;;;29.30
20733;BMP180;10527;52.124;5.196;2023-09-19T12:51:09;100652.00;;;29.40
20733;BMP180;10527;52.124;5.196;2023-09-19T12:53:45;100651.00;;;29.40
20733;BMP180;10527;52.124;5.196;2023-09-19T12:56:15;100677.00;;;29.40
20733;BMP180;10527;52.124;5.196;2023-09-19T12:59:09;100652.00;;;29.40
20733;BMP180;10527;52.124;5.196;2023-09-19T13:01:40;100658.00;;;29.40
20733;BMP180;10527;52.124;5.196;2023-09-19T13:04:21;100652.00;;;29.40
20733;BMP180;10527;52.124;5.196;2023-09-19T13:06:56;100678.00;;;29.40
20733;BMP180;10527;52.124;5.196;2023-09-19T13:09:28;100667.00;;;29.30
20733;BMP180;10527;52.124;5.196;2023-09-19T13:12:01;100666.00;;;29.30
20733;BMP180;10527;52.124;5.196;2023-09-19T13:14:30;100659.00;;;29.30
20733;BMP180;10527;52.124;5.196;2023-09-19T13:17:02;100655.00;;;29.30
20733;BMP180;10527;52.124;5.196;2023-09-19T13:19:51;100660.00;;;29.30
20733;BMP180;10527;52.124;5.196;2023-09-19T13:25:13;100654.00;;;29.30
20733;BMP180;10527;52.124;5.196;2023-09-19T13:27:49;100649.00;;;29.20
20733;BMP180;10527;52.124;5.196;2023-09-19T13:30:23;100642.00;;;29.30
20733;BMP180;10527;52.124;5.196;2023-09-19T13:33:03;100651.00;;;29.30
20733;BMP180;10527;52.124;5.196;2023-09-19T13:35:31;100657.00;;;29.30
20733;BMP180;10527;52.124;5.196;2023-09-19T13:37:59;100646.00;;;29.30
20733;BMP180;10527;52.124;5.196;2023-09-19T13:40:27;100642.00;;;29.30
20733;BMP180;10527;52.124;5.196;2023-09-19T13:42:57;100637.00;;;29.30
20733;BMP180;10527;52.124;5.196;2023-09-19T13:45:24;100633.00;;;29.40
20733;BMP180;10527;52.124;5.196;2023-09-19T13:47:57;100625.00;;;29.40
20733;BMP180;10527;52.124;5.196;2023-09-19T13:50:29;100625.00;;;29.40
20733;BMP180;10527;52.124;5.196;2023-09-19T13:52:58;100631.00;;;29.40
20733;BMP180;10527;52.124;5.196;2023-09-19T13:55:27;100625.00;;;29.40
20733;BMP180;10527;52.124;5.196;2023-09-19T13:57:54;100628.00;;;29.40
20733;BMP180;10527;52.124;5.196;2023-09-19T14:00:23;100627.00;;;29.40
20733;BMP180;10527;52.124;5.196;2023-09-19T14:02:50;100623.00;;;29.40
20733;BMP180;10527;52.124;5.196;2023-09-19T14:05:19;100630.00;;;29.40
20733;BMP180;10527;52.124;5.196;2023-09-19T14:07:47;100636.00;;;29.40
20733;BMP180;10527;52.124;5.196;2023-09-19T14:10:15;100637.00;;;29.40
20733;BMP180;10527;52.124;5.196;2023-09-19T14:12:45;100644.00;;;29.40
20733;BMP180;10527;52.124;5.196;2023-09-19T14:15:12;100648.00;;;29.50
20733;BMP180;10527;52.124;5.196;2023-09-19T14:17:40;100649.00;;;29.50
20733;BMP180;10527;52.124;5.196;2023-09-19T14:20:12;100633.00;;;29.50
20733;BMP180;10527;52.124;5.196;2023-09-19T14:22:40;100645.00;;;29.50
20733;BMP180;10527;52.124;5.196;2023-09-19T14:25:08;100625.00;;;29.40
20733;BMP180;10527;52.124;5.196;2023-09-19T14:27:35;100635.00;;;29.40
20733;BMP180;10527;52.124;5.196;2023-09-19T14:30:03;100640.00;;;29.40
20733;BMP180;10527;52.124;5.196;2023-09-19T14:32:31;100629.00;;;29.40
20733;BMP180;10527;52.124;5.196;2023-09-19T14:34:57;100621.00;;;29.40
20733;BMP180;10527;52.124;5.196;2023-09-19T14:37:25;100624.00;;;29.40
20733;BMP180;10527;52.124;5.196;2023-09-19T14:39:55;100624.00;;;29.40
20733;BMP180;10527;52.124;5.196;2023-09-19T14:42:22;100632.00;;;29.50
20733;BMP180;10527;52.124;5.196;2023-09-19T14:44:49;100647.00;;;29.50
20733;BMP180;10527;52.124;5.196;2023-09-19T14:47:16;100649.00;;;29.40
20733;BMP180;10527;52.124;5.196;2023-09-19T14:49:43;100645.00;;;29.40
20733;BMP180;10527;52.124;5.196;2023-09-19T14:52:11;100655.00;;;29.40
20733;BMP180;10527;52.124;5.196;2023-09-19T14:54:42;100668.00;;;29.40
20733;BMP180;10527;52.124;5.196;2023-09-19T14:57:09;100640.00;;;29.30
20733;BMP180;10527;52.124;5.196;2023-09-19T14:59:38;100649.00;;;29.30
20733;BMP180;10527;52.124;5.196;2023-09-19T15:02:07;100660.00;;;29.30
20733;BMP180;10527;52.124;5.196;2023-09-19T15:04:34;100645.00;;;29.20
20733;BMP180;10527;52.124;5.196;2023-09-19T15:07:01;100635.00;;;29.20